sensor_id;sensor_type;location;lat;lon;timestamp;temperature;humidity
15143;DHT22;7672;50.834;6.286;2024-02-15T00:01:26;14.90;99.90
15143;DHT22;7672;50.834;6.286;2024-02-15T00:03:53;14.90;99.90
15143;DHT22;7672;50.834;6.286;2024-02-15T00:06:38;14.90;99.90
15143;DHT22;7672;50.834;6.286;2024-02-15T00:09:05;14.90;99.90
15143;DHT22;7672;50.834;6.286;2024-02-15T00:11:32;14.90;99.90
15143;DHT22;7672;50.834;6.286;2024-02-15T00:14:00;14.90;99.90
15143;DHT22;7672;50.834;6.286;2024-02-15T00:16:27;14.90;99.90
15143;DHT22;7672;50.834;6.286;2024-02-15T00:18:54;14.90;99.90
15143;DHT22;7672;50.834;6.286;2024-02-15T00:21:22;14.90;99.90
15143;DHT22;7672;50.834;6.286;2024-02-15T00:23:49;15.00;99.90
15143;DHT22;7672;50.834;6.286;2024-02-15T00:26:17;15.00;99.90
15143;DHT22;7672;50.834;6.286;2024-02-15T00:28:44;15.00;99.90
15143;DHT22;7672;50.834;6.286;2024-02-15T00:31:11;15.00;99.90
15143;DHT22;7672;50.834;6.286;2024-02-15T00:33:38;15.00;99.90
15143;DHT22;7672;50.834;6.286;2024-02-15T00:36:06;15.00;99.90
15143;DHT22;7672;50.834;6.286;2024-02-15T00:38:34;15.00;99.90
15143;DHT22;7672;50.834;6.286;2024-02-15T00:41:02;15.00;99.90
15143;DHT22;7672;50.834;6.286;2024-02-15T00:43:29;15.00;99.90
15143;DHT22;7672;50.834;6.286;2024-02-15T00:46:01;15.00;99.90
15143;DHT22;7672;50.834;6.286;2024-02-15T00:48:28;15.00;99.90
15143;DHT22;7672;50.834;6.286;2024-02-15T00:50:56;15.00;99.90
15143;DHT22;7672;50.834;6.286;2024-02-15T00:53:25;15.00;99.90
15143;DHT22;7672;50.834;6.286;2024-02-15T00:55:52;15.00;99.90
15143;DHT22;7672;50.834;6.286;2024-02-15T00:58:19;15.00;99.90
15143;DHT22;7672;50.834;6.286;2024-02-15T01:00:48;15.00;99.90
15143;DHT22;7672;50.834;6.286;2024-02-15T01:03:16;15.00;99.90
15143;DHT22;7672;50.834;6.286;2024-02-15T01:05:43;15.00;99.90
15143;DHT22;7672;50.834;6.286;2024-02-15T01:08:10;15.00;99.90
15143;DHT22;7672;50.834;6.286;2024-02-15T01:10:38;15.30;99.90
15143;DHT22;7672;50.834;6.286;2024-02-15T01:13:05;15.00;99.90
15143;DHT22;7672;50.834;6.286;2024-02-15T01:15:32;15.10;99.90
15143;DHT22;7672;50.834;6.286;2024-02-15T01:18:00;15.00;99.90
15143;DHT22;7672;50.834;6.286;2024-02-15T01:20:27;15.00;99.90
15143;DHT22;7672;50.834;6.286;2024-02-15T01:22:54;15.00;99.90
15143;DHT22;7672;50.834;6.286;2024-02-15T01:25:21;15.10;99.90
15143;DHT22;7672;50.834;6.286;2024-02-15T01:27:49;15.10;99.90
15143;DHT22;7672;50.834;6.286;2024-02-15T01:30:16;15.10;99.90
15143;DHT22;7672;50.834;6.286;2024-02-15T01:32:44;15.10;99.90
15143;DHT22;7672;50.834;6.286;2024-02-15T01:35:11;15.10;99.90
15143;DHT22;7672;50.834;6.286;2024-02-15T01:37:38;15.10;99.90
15143;DHT22;7672;50.834;6.286;2024-02-15T01:40:06;15.10;99.90
15143;DHT22;7672;50.834;6.286;2024-02-15T01:42:33;15.00;99.90
15143;DHT22;7672;50.834;6.286;2024-02-15T01:45:01;15.10;99.90
15143;DHT22;7672;50.834;6.286;2024-02-15T01:47:29;15.10;99.90
15143;DHT22;7672;50.834;6.286;2024-02-15T01:49:57;15.10;99.90
15143;DHT22;7672;50.834;6.286;2024-02-15T01:52:24;15.00;99.90
15143;DHT22;7672;50.834;6.286;2024-02-15T01:54:52;15.00;99.90
15143;DHT22;7672;50.834;6.286;2024-02-15T01:57:20;15.00;99.90
15143;DHT22;7672;50.834;6.286;2024-02-15T01:59:50;15.20;99.90
15143;DHT22;7672;50.834;6.286;2024-02-15T02:02:22;15.00;99.90
15143;DHT22;7672;50.834;6.286;2024-02-15T02:04:55;15.10;99.90
15143;DHT22;7672;50.834;6.286;2024-02-15T02:07:22;15.00;99.90
15143;DHT22;7672;50.834;6.286;2024-02-15T02:09:50;15.00;99.90
15143;DHT22;7672;50.834;6.286;2024-02-15T02:12:18;15.00;99.90
15143;DHT22;7672;50.834;6.286;2024-02-15T02:14:45;15.00;99.90
15143;DHT22;7672;50.834;6.286;2024-02-15T02:17:15;15.00;99.90
15143;DHT22;7672;50.834;6.286;2024-02-15T02:19:43;15.00;99.90
15143;DHT22;7672;50.834;6.286;2024-02-15T02:22:11;15.00;99.90
15143;DHT22;7672;50.834;6.286;2024-02-15T02:25:05;14.90;99.90
15143;DHT22;7672;50.834;6.286;2024-02-15T02:27:36;14.90;99.90
15143;DHT22;7672;50.834;6.286;2024-02-15T02:30:04;14.90;99.90
15143;DHT22;7672;50.834;6.286;2024-02-15T02:32:41;14.90;99.90
15143;DHT22;7672;50.834;6.286;2024-02-15T02:35:09;14.90;99.90
15143;DHT22;7672;50.834;6.286;2024-02-15T02:37:39;14.90;99.90
15143;DHT22;7672;50.834;6.286;2024-02-15T02:40:07;14.90;99.90
15143;DHT22;7672;50.834;6.286;2024-02-15T02:42:56;14.80;99.90
15143;DHT22;7672;50.834;6.286;2024-02-15T02:45:26;14.80;99.90
15143;DHT22;7672;50.834;6.286;2024-02-15T02:47:53;14.80;99.90
15143;DHT22;7672;50.834;6.286;2024-02-15T02:50:22;14.80;99.90
15143;DHT22;7672;50.834;6.286;2024-02-15T02:52:50;14.80;99.90
15143;DHT22;7672;50.834;6.286;2024-02-15T02:55:17;14.80;99.90
15143;DHT22;7672;50.834;6.286;2024-02-15T02:57:45;14.80;99.90
15143;DHT22;7672;50.834;6.286;2024-02-15T03:00:13;14.80;99.90
15143;DHT22;7672;50.834;6.286;2024-02-15T03:02:43;14.90;99.90
15143;DHT22;7672;50.834;6.286;2024-02-15T03:05:11;14.90;99.90
15143;DHT22;7672;50.834;6.286;2024-02-15T03:07:39;14.90;99.90
15143;DHT22;7672;50.834;6.286;2024-02-15T03:10:11;14.90;99.90
15143;DHT22;7672;50.834;6.286;2024-02-15T03:12:41;14.90;99.90
15143;DHT22;7672;50.834;6.286;2024-02-15T03:15:15;14.90;99.90
15143;DHT22;7672;50.834;6.286;2024-02-15T03:17:47;14.90;99.90
15143;DHT22;7672;50.834;6.286;2024-02-15T03:20:15;14.90;99.90
15143;DHT22;7672;50.834;6.286;2024-02-15T03:22:57;14.90;99.90
15143;DHT22;7672;50.834;6.286;2024-02-15T03:25:26;14.90;99.90
15143;DHT22;7672;50.834;6.286;2024-02-15T03:27:59;14.90;99.90
15143;DHT22;7672;50.834;6.286;2024-02-15T03:30:31;14.80;99.90
15143;DHT22;7672;50.834;6.286;2024-02-15T03:33:01;14.80;99.90
15143;DHT22;7672;50.834;6.286;2024-02-15T03:35:34;14.80;99.90
15143;DHT22;7672;50.834;6.286;2024-02-15T03:38:02;14.80;99.90
15143;DHT22;7672;50.834;6.286;2024-02-15T03:40:29;14.80;99.90
15143;DHT22;7672;50.834;6.286;2024-02-15T03:42:58;14.80;99.90
15143;DHT22;7672;50.834;6.286;2024-02-15T03:45:25;14.70;99.90
15143;DHT22;7672;50.834;6.286;2024-02-15T03:47:54;14.70;99.90
15143;DHT22;7672;50.834;6.286;2024-02-15T03:50:23;14.70;99.90
15143;DHT22;7672;50.834;6.286;2024-02-15T03:52:50;14.70;99.90
15143;DHT22;7672;50.834;6.286;2024-02-15T03:55:18;14.70;99.90
15143;DHT22;7672;50.834;6.286;2024-02-15T03:57:46;14.70;99.90
15143;DHT22;7672;50.834;6.286;2024-02-15T04:00:14;14.70;99.90
15143;DHT22;7672;50.834;6.286;2024-02-15T04:02:49;14.60;99.90
15143;DHT22;7672;50.834;6.286;2024-02-15T04:05:17;14.60;99.90
15143;DHT22;7672;50.834;6.286;2024-02-15T04:07:46;14.60;99.90
15143;DHT22;7672;50.834;6.286;2024-02-15T04:10:13;14.60;99.90
15143;DHT22;7672;50.834;6.286;2024-02-15T04:12:49;14.60;99.90
15143;DHT22;7672;50.834;6.286;2024-02-15T04:15:17;14.50;99.90
15143;DHT22;7672;50.834;6.286;2024-02-15T04:17:45;14.50;99.90
15143;DHT22;7672;50.834;6.286;2024-02-15T04:20:13;14.50;99.90
15143;DHT22;7672;50.834;6.286;2024-02-15T04:22:42;14.50;99.90
15143;DHT22;7672;50.834;6.286;2024-02-15T04:25:11;14.50;99.90
15143;DHT22;7672;50.834;6.286;2024-02-15T04:27:47;14.50;99.90
15143;DHT22;7672;50.834;6.286;2024-02-15T04:30:16;14.40;99.90
15143;DHT22;7672;50.834;6.286;2024-02-15T04:32:44;14.40;99.90
15143;DHT22;7672;50.834;6.286;2024-02-15T04:35:12;14.40;99.90
15143;DHT22;7672;50.834;6.286;2024-02-15T04:37:41;14.40;99.90
15143;DHT22;7672;50.834;6.286;2024-02-15T04:40:09;14.40;99.90
15143;DHT22;7672;50.834;6.286;2024-02-15T04:42:40;14.30;99.90
15143;DHT22;7672;50.834;6.286;2024-02-15T04:45:10;14.30;99.90
15143;DHT22;7672;50.834;6.286;2024-02-15T04:47:53;14.50;99.90
15143;DHT22;7672;50.834;6.286;2024-02-15T04:50:20;14.30;99.90
15143;DHT22;7672;50.834;6.286;2024-02-15T04:52:48;14.30;99.90
15143;DHT22;7672;50.834;6.286;2024-02-15T04:55:16;14.30;99.90
15143;DHT22;7672;50.834;6.286;2024-02-15T04:57:44;14.30;99.90
15143;DHT22;7672;50.834;6.286;2024-02-15T05:00:14;14.30;99.90
15143;DHT22;7672;50.834;6.286;2024-02-15T05:02:42;14.30;99.90
15143;DHT22;7672;50.834;6.286;2024-02-15T05:05:11;14.30;99.90
15143;DHT22;7672;50.834;6.286;2024-02-15T05:07:42;14.30;99.90
15143;DHT22;7672;50.834;6.286;2024-02-15T05:10:10;14.30;99.90
15143;DHT22;7672;50.834;6.286;2024-02-15T05:12:37;14.30;99.90
15143;DHT22;7672;50.834;6.286;2024-02-15T05:15:09;14.40;99.90
15143;DHT22;7672;50.834;6.286;2024-02-15T05:17:40;14.40;99.90
15143;DHT22;7672;50.834;6.286;2024-02-15T05:20:09;14.40;99.90
15143;DHT22;7672;50.834;6.286;2024-02-15T05:22:39;14.40;99.90
15143;DHT22;7672;50.834;6.286;2024-02-15T05:25:08;14.40;99.90
15143;DHT22;7672;50.834;6.286;2024-02-15T05:27:35;14.40;99.90
15143;DHT22;7672;50.834;6.286;2024-02-15T05:30:04;14.40;99.90
15143;DHT22;7672;50.834;6.286;2024-02-15T05:32:35;14.40;99.90
15143;DHT22;7672;50.834;6.286;2024-02-15T05:35:11;14.50;99.90
15143;DHT22;7672;50.834;6.286;2024-02-15T05:37:38;14.50;99.90
15143;DHT22;7672;50.834;6.286;2024-02-15T05:40:06;14.50;99.90
15143;DHT22;7672;50.834;6.286;2024-02-15T05:42:34;14.50;99.90
15143;DHT22;7672;50.834;6.286;2024-02-15T05:47:55;14.50;99.90
15143;DHT22;7672;50.834;6.286;2024-02-15T05:50:22;14.50;99.90
15143;DHT22;7672;50.834;6.286;2024-02-15T05:52:50;14.50;99.90
15143;DHT22;7672;50.834;6.286;2024-02-15T05:55:21;14.50;99.90
15143;DHT22;7672;50.834;6.286;2024-02-15T05:57:49;14.50;99.90
15143;DHT22;7672;50.834;6.286;2024-02-15T06:00:16;14.60;99.90
15143;DHT22;7672;50.834;6.286;2024-02-15T06:02:49;14.60;99.90
15143;DHT22;7672;50.834;6.286;2024-02-15T06:05:18;14.60;99.90
15143;DHT22;7672;50.834;6.286;2024-02-15T06:07:45;14.60;99.90
15143;DHT22;7672;50.834;6.286;2024-02-15T06:10:14;14.60;99.90
15143;DHT22;7672;50.834;6.286;2024-02-15T06:12:41;14.60;99.90
15143;DHT22;7672;50.834;6.286;2024-02-15T06:15:09;14.70;99.90
15143;DHT22;7672;50.834;6.286;2024-02-15T06:17:43;14.70;99.90
15143;DHT22;7672;50.834;6.286;2024-02-15T06:20:15;14.70;99.90
15143;DHT22;7672;50.834;6.286;2024-02-15T06:22:48;14.70;99.90
15143;DHT22;7672;50.834;6.286;2024-02-15T06:25:15;14.70;99.90
15143;DHT22;7672;50.834;6.286;2024-02-15T06:27:48;14.70;99.90
15143;DHT22;7672;50.834;6.286;2024-02-15T06:30:15;14.70;99.90
15143;DHT22;7672;50.834;6.286;2024-02-15T06:33:00;14.80;99.90
15143;DHT22;7672;50.834;6.286;2024-02-15T06:35:46;14.80;99.90
15143;DHT22;7672;50.834;6.286;2024-02-15T06:38:31;14.80;99.90
15143;DHT22;7672;50.834;6.286;2024-02-15T06:41:17;14.80;99.90
15143;DHT22;7672;50.834;6.286;2024-02-15T06:43:48;14.80;99.90
15143;DHT22;7672;50.834;6.286;2024-02-15T06:46:15;14.90;99.90
15143;DHT22;7672;50.834;6.286;2024-02-15T06:48:42;14.90;99.90
15143;DHT22;7672;50.834;6.286;2024-02-15T06:51:14;14.90;99.90
15143;DHT22;7672;50.834;6.286;2024-02-15T06:53:43;14.90;99.90
15143;DHT22;7672;50.834;6.286;2024-02-15T06:56:10;14.90;99.90
15143;DHT22;7672;50.834;6.286;2024-02-15T06:58:38;15.00;99.90
15143;DHT22;7672;50.834;6.286;2024-02-15T07:01:06;15.00;99.90
15143;DHT22;7672;50.834;6.286;2024-02-15T07:03:35;15.00;99.90
15143;DHT22;7672;50.834;6.286;2024-02-15T07:06:02;15.10;99.90
15143;DHT22;7672;50.834;6.286;2024-02-15T07:08:31;15.10;99.90
15143;DHT22;7672;50.834;6.286;2024-02-15T07:10:59;15.10;99.90
15143;DHT22;7672;50.834;6.286;2024-02-15T07:13:26;15.10;99.90
15143;DHT22;7672;50.834;6.286;2024-02-15T07:15:53;15.20;99.90
15143;DHT22;7672;50.834;6.286;2024-02-15T07:18:20;15.20;99.90
15143;DHT22;7672;50.834;6.286;2024-02-15T07:20:54;15.20;99.90
15143;DHT22;7672;50.834;6.286;2024-02-15T07:23:23;15.20;99.90
15143;DHT22;7672;50.834;6.286;2024-02-15T07:25:52;15.20;99.90
15143;DHT22;7672;50.834;6.286;2024-02-15T07:28:20;15.30;99.90
15143;DHT22;7672;50.834;6.286;2024-02-15T07:30:47;15.30;99.90
15143;DHT22;7672;50.834;6.286;2024-02-15T07:33:17;15.30;99.90
15143;DHT22;7672;50.834;6.286;2024-02-15T07:35:44;15.30;99.90
15143;DHT22;7672;50.834;6.286;2024-02-15T07:38:12;15.40;99.90
15143;DHT22;7672;50.834;6.286;2024-02-15T07:40:39;15.40;99.90
15143;DHT22;7672;50.834;6.286;2024-02-15T07:43:06;15.40;99.90
15143;DHT22;7672;50.834;6.286;2024-02-15T07:45:33;15.40;99.90
15143;DHT22;7672;50.834;6.286;2024-02-15T07:48:04;15.50;99.90
15143;DHT22;7672;50.834;6.286;2024-02-15T07:50:31;15.50;99.90
15143;DHT22;7672;50.834;6.286;2024-02-15T07:52:59;15.50;99.90
15143;DHT22;7672;50.834;6.286;2024-02-15T07:55:26;15.50;99.90
15143;DHT22;7672;50.834;6.286;2024-02-15T07:57:53;15.60;99.90
15143;DHT22;7672;50.834;6.286;2024-02-15T08:00:20;15.60;99.90
15143;DHT22;7672;50.834;6.286;2024-02-15T08:02:47;15.60;99.90
15143;DHT22;7672;50.834;6.286;2024-02-15T08:05:14;15.60;99.90
15143;DHT22;7672;50.834;6.286;2024-02-15T08:07:43;15.70;99.90
15143;DHT22;7672;50.834;6.286;2024-02-15T08:10:11;15.70;99.90
15143;DHT22;7672;50.834;6.286;2024-02-15T08:12:46;15.70;99.90
15143;DHT22;7672;50.834;6.286;2024-02-15T08:15:13;15.80;99.90
15143;DHT22;7672;50.834;6.286;2024-02-15T08:17:44;15.80;99.90
15143;DHT22;7672;50.834;6.286;2024-02-15T08:20:15;15.80;99.90
15143;DHT22;7672;50.834;6.286;2024-02-15T08:22:48;15.90;99.90
15143;DHT22;7672;50.834;6.286;2024-02-15T08:25:15;16.00;99.90
15143;DHT22;7672;50.834;6.286;2024-02-15T08:27:47;16.00;99.90
15143;DHT22;7672;50.834;6.286;2024-02-15T08:30:17;16.00;99.90
15143;DHT22;7672;50.834;6.286;2024-02-15T08:32:49;16.10;99.90
15143;DHT22;7672;50.834;6.286;2024-02-15T08:35:17;16.20;99.90
15143;DHT22;7672;50.834;6.286;2024-02-15T08:37:44;16.30;99.90
15143;DHT22;7672;50.834;6.286;2024-02-15T08:40:14;16.30;99.90
15143;DHT22;7672;50.834;6.286;2024-02-15T08:42:42;16.40;99.90
15143;DHT22;7672;50.834;6.286;2024-02-15T08:45:10;16.50;99.90
15143;DHT22;7672;50.834;6.286;2024-02-15T08:47:40;16.60;99.90
15143;DHT22;7672;50.834;6.286;2024-02-15T08:50:09;16.70;99.90
15143;DHT22;7672;50.834;6.286;2024-02-15T08:52:40;16.90;99.90
15143;DHT22;7672;50.834;6.286;2024-02-15T08:55:09;17.00;99.90
15143;DHT22;7672;50.834;6.286;2024-02-15T08:57:37;17.20;99.90
15143;DHT22;7672;50.834;6.286;2024-02-15T09:00:08;17.20;99.90
15143;DHT22;7672;50.834;6.286;2024-02-15T09:02:44;17.30;99.90
15143;DHT22;7672;50.834;6.286;2024-02-15T09:05:13;17.50;99.90
15143;DHT22;7672;50.834;6.286;2024-02-15T09:07:42;17.60;99.90
15143;DHT22;7672;50.834;6.286;2024-02-15T09:10:11;17.70;99.90
15143;DHT22;7672;50.834;6.286;2024-02-15T09:12:42;17.80;99.90
15143;DHT22;7672;50.834;6.286;2024-02-15T09:15:11;18.00;99.90
15143;DHT22;7672;50.834;6.286;2024-02-15T09:17:38;18.10;99.90
15143;DHT22;7672;50.834;6.286;2024-02-15T09:20:07;18.20;99.90
15143;DHT22;7672;50.834;6.286;2024-02-15T09:22:35;18.30;99.90
15143;DHT22;7672;50.834;6.286;2024-02-15T09:25:03;18.50;99.90
15143;DHT22;7672;50.834;6.286;2024-02-15T09:27:30;18.60;99.90
15143;DHT22;7672;50.834;6.286;2024-02-15T09:29:57;18.70;99.90
15143;DHT22;7672;50.834;6.286;2024-02-15T09:32:24;18.80;99.90
15143;DHT22;7672;50.834;6.286;2024-02-15T09:34:51;18.90;99.90
15143;DHT22;7672;50.834;6.286;2024-02-15T09:37:18;18.90;99.90
15143;DHT22;7672;50.834;6.286;2024-02-15T09:39:45;19.10;99.90
15143;DHT22;7672;50.834;6.286;2024-02-15T09:42:12;19.10;99.90
15143;DHT22;7672;50.834;6.286;2024-02-15T09:44:40;19.40;99.90
15143;DHT22;7672;50.834;6.286;2024-02-15T09:47:07;19.30;99.90
15143;DHT22;7672;50.834;6.286;2024-02-15T09:49:39;19.40;99.90
15143;DHT22;7672;50.834;6.286;2024-02-15T09:52:08;19.50;99.90
15143;DHT22;7672;50.834;6.286;2024-02-15T09:54:42;19.80;99.90
15143;DHT22;7672;50.834;6.286;2024-02-15T09:57:11;19.60;99.90
15143;DHT22;7672;50.834;6.286;2024-02-15T09:59:39;19.70;99.90
15143;DHT22;7672;50.834;6.286;2024-02-15T10:02:07;19.80;99.90
15143;DHT22;7672;50.834;6.286;2024-02-15T10:04:39;19.80;99.90
15143;DHT22;7672;50.834;6.286;2024-02-15T10:07:07;19.90;99.90
15143;DHT22;7672;50.834;6.286;2024-02-15T10:09:36;20.00;99.90
15143;DHT22;7672;50.834;6.286;2024-02-15T10:12:05;20.10;99.90
15143;DHT22;7672;50.834;6.286;2024-02-15T10:14:36;20.20;99.90
15143;DHT22;7672;50.834;6.286;2024-02-15T10:17:07;20.30;99.90
15143;DHT22;7672;50.834;6.286;2024-02-15T10:19:38;20.50;99.90
15143;DHT22;7672;50.834;6.286;2024-02-15T10:22:10;20.70;99.90
15143;DHT22;7672;50.834;6.286;2024-02-15T10:24:37;20.80;99.90
15143;DHT22;7672;50.834;6.286;2024-02-15T10:27:06;21.10;99.90
15143;DHT22;7672;50.834;6.286;2024-02-15T10:29:34;21.30;99.90
15143;DHT22;7672;50.834;6.286;2024-02-15T10:32:02;21.60;99.90
15143;DHT22;7672;50.834;6.286;2024-02-15T10:34:31;21.80;99.90
15143;DHT22;7672;50.834;6.286;2024-02-15T10:37:11;22.10;99.90
15143;DHT22;7672;50.834;6.286;2024-02-15T10:39:40;22.30;99.90
15143;DHT22;7672;50.834;6.286;2024-02-15T10:42:09;22.50;99.90
15143;DHT22;7672;50.834;6.286;2024-02-15T10:44:38;22.60;99.90
15143;DHT22;7672;50.834;6.286;2024-02-15T10:47:05;22.80;99.90
15143;DHT22;7672;50.834;6.286;2024-02-15T10:49:34;22.90;99.90
15143;DHT22;7672;50.834;6.286;2024-02-15T10:52:04;23.00;99.90
15143;DHT22;7672;50.834;6.286;2024-02-15T10:54:47;23.20;99.90
15143;DHT22;7672;50.834;6.286;2024-02-15T10:57:32;23.40;99.90
15143;DHT22;7672;50.834;6.286;2024-02-15T11:00:00;23.60;99.90
15143;DHT22;7672;50.834;6.286;2024-02-15T11:03:00;23.70;99.90
15143;DHT22;7672;50.834;6.286;2024-02-15T11:05:34;24.10;99.90
15143;DHT22;7672;50.834;6.286;2024-02-15T11:08:07;24.20;99.90
15143;DHT22;7672;50.834;6.286;2024-02-15T11:10:37;24.30;99.90
15143;DHT22;7672;50.834;6.286;2024-02-15T11:13:09;24.40;99.90
15143;DHT22;7672;50.834;6.286;2024-02-15T11:15:41;24.60;99.90
15143;DHT22;7672;50.834;6.286;2024-02-15T11:18:12;24.60;99.90
15143;DHT22;7672;50.834;6.286;2024-02-15T11:23:10;24.70;99.90
15143;DHT22;7672;50.834;6.286;2024-02-15T11:25:41;24.70;99.90
15143;DHT22;7672;50.834;6.286;2024-02-15T11:30:54;24.90;99.90
15143;DHT22;7672;50.834;6.286;2024-02-15T11:33:31;24.80;99.90
15143;DHT22;7672;50.834;6.286;2024-02-15T11:36:09;24.80;99.90
15143;DHT22;7672;50.834;6.286;2024-02-15T11:38:39;24.80;99.90
15143;DHT22;7672;50.834;6.286;2024-02-15T11:41:09;24.80;99.90
15143;DHT22;7672;50.834;6.286;2024-02-15T11:46:19;24.80;99.90
15143;DHT22;7672;50.834;6.286;2024-02-15T11:48:49;24.80;99.90
15143;DHT22;7672;50.834;6.286;2024-02-15T11:54:10;24.90;99.90
15143;DHT22;7672;50.834;6.286;2024-02-15T11:59:16;24.90;99.90
15143;DHT22;7672;50.834;6.286;2024-02-15T12:01:56;24.90;99.90
15143;DHT22;7672;50.834;6.286;2024-02-15T12:04:43;24.80;99.90
15143;DHT22;7672;50.834;6.286;2024-02-15T12:07:29;24.80;99.90
15143;DHT22;7672;50.834;6.286;2024-02-15T12:10:17;24.70;99.90
15143;DHT22;7672;50.834;6.286;2024-02-15T12:13:03;24.60;99.90
15143;DHT22;7672;50.834;6.286;2024-02-15T12:15:59;24.40;99.90
15143;DHT22;7672;50.834;6.286;2024-02-15T12:18:45;24.20;99.90
15143;DHT22;7672;50.834;6.286;2024-02-15T12:21:17;24.10;99.90
15143;DHT22;7672;50.834;6.286;2024-02-15T12:23:48;23.90;99.90
15143;DHT22;7672;50.834;6.286;2024-02-15T12:26:20;23.70;99.90
15143;DHT22;7672;50.834;6.286;2024-02-15T12:28:51;23.60;99.90
15143;DHT22;7672;50.834;6.286;2024-02-15T12:31:23;23.50;99.90
15143;DHT22;7672;50.834;6.286;2024-02-15T12:34:00;23.40;99.90
15143;DHT22;7672;50.834;6.286;2024-02-15T12:36:30;23.20;99.90
15143;DHT22;7672;50.834;6.286;2024-02-15T12:39:06;23.20;99.90
15143;DHT22;7672;50.834;6.286;2024-02-15T12:41:52;23.00;99.90
15143;DHT22;7672;50.834;6.286;2024-02-15T12:44:19;22.90;99.90
15143;DHT22;7672;50.834;6.286;2024-02-15T12:46:56;22.80;99.90
15143;DHT22;7672;50.834;6.286;2024-02-15T12:51:52;22.70;99.90
15143;DHT22;7672;50.834;6.286;2024-02-15T12:54:20;22.90;99.90
15143;DHT22;7672;50.834;6.286;2024-02-15T12:56:48;22.60;99.90
15143;DHT22;7672;50.834;6.286;2024-02-15T12:59:16;22.60;99.90
15143;DHT22;7672;50.834;6.286;2024-02-15T13:01:46;22.60;99.90
15143;DHT22;7672;50.834;6.286;2024-02-15T13:04:23;22.60;99.90
15143;DHT22;7672;50.834;6.286;2024-02-15T13:06:54;22.50;99.90
15143;DHT22;7672;50.834;6.286;2024-02-15T13:09:22;22.50;99.90
15143;DHT22;7672;50.834;6.286;2024-02-15T13:11:50;22.50;99.90
15143;DHT22;7672;50.834;6.286;2024-02-15T13:14:17;22.50;99.90
15143;DHT22;7672;50.834;6.286;2024-02-15T13:16:44;22.50;99.90
15143;DHT22;7672;50.834;6.286;2024-02-15T13:19:13;22.50;99.90
15143;DHT22;7672;50.834;6.286;2024-02-15T13:21:40;22.50;99.90
15143;DHT22;7672;50.834;6.286;2024-02-15T13:24:07;22.50;99.90
15143;DHT22;7672;50.834;6.286;2024-02-15T13:26:37;22.40;99.90
15143;DHT22;7672;50.834;6.286;2024-02-15T13:29:04;22.40;99.90
15143;DHT22;7672;50.834;6.286;2024-02-15T13:31:31;22.20;99.90
15143;DHT22;7672;50.834;6.286;2024-02-15T13:33:58;22.10;99.90
15143;DHT22;7672;50.834;6.286;2024-02-15T13:36:25;22.00;99.90
15143;DHT22;7672;50.834;6.286;2024-02-15T13:38:53;21.90;99.90
15143;DHT22;7672;50.834;6.286;2024-02-15T13:41:20;21.90;99.90
15143;DHT22;7672;50.834;6.286;2024-02-15T13:43:47;21.80;99.90
15143;DHT22;7672;50.834;6.286;2024-02-15T13:46:13;21.80;99.90
15143;DHT22;7672;50.834;6.286;2024-02-15T13:48:41;21.90;99.90
15143;DHT22;7672;50.834;6.286;2024-02-15T13:51:10;21.70;99.90
15143;DHT22;7672;50.834;6.286;2024-02-15T13:53:37;21.60;99.90
15143;DHT22;7672;50.834;6.286;2024-02-15T13:56:04;21.60;99.90
15143;DHT22;7672;50.834;6.286;2024-02-15T13:58:32;21.50;99.90
15143;DHT22;7672;50.834;6.286;2024-02-15T14:00:59;21.40;99.90
15143;DHT22;7672;50.834;6.286;2024-02-15T14:03:30;21.40;99.90
15143;DHT22;7672;50.834;6.286;2024-02-15T14:05:57;21.30;99.90
15143;DHT22;7672;50.834;6.286;2024-02-15T14:08:24;21.30;99.90
15143;DHT22;7672;50.834;6.286;2024-02-15T14:10:52;21.20;99.90
15143;DHT22;7672;50.834;6.286;2024-02-15T14:13:19;21.20;99.90
15143;DHT22;7672;50.834;6.286;2024-02-15T14:15:49;21.20;99.90
15143;DHT22;7672;50.834;6.286;2024-02-15T14:18:16;21.20;99.90
15143;DHT22;7672;50.834;6.286;2024-02-15T14:20:47;21.20;99.90
15143;DHT22;7672;50.834;6.286;2024-02-15T14:23:15;21.30;99.90
15143;DHT22;7672;50.834;6.286;2024-02-15T14:25:43;21.20;99.90
15143;DHT22;7672;50.834;6.286;2024-02-15T14:28:14;21.20;99.90
15143;DHT22;7672;50.834;6.286;2024-02-15T14:30:42;21.10;99.90
15143;DHT22;7672;50.834;6.286;2024-02-15T14:33:30;21.10;99.90
15143;DHT22;7672;50.834;6.286;2024-02-15T14:36:00;21.10;99.90
15143;DHT22;7672;50.834;6.286;2024-02-15T14:38:28;21.10;99.90
15143;DHT22;7672;50.834;6.286;2024-02-15T14:40:56;21.10;99.90
15143;DHT22;7672;50.834;6.286;2024-02-15T14:43:25;21.00;99.90
15143;DHT22;7672;50.834;6.286;2024-02-15T14:45:54;21.00;99.90
15143;DHT22;7672;50.834;6.286;2024-02-15T14:48:23;20.90;99.90
15143;DHT22;7672;50.834;6.286;2024-02-15T14:50:51;20.80;99.90
15143;DHT22;7672;50.834;6.286;2024-02-15T14:53:19;20.80;99.90
15143;DHT22;7672;50.834;6.286;2024-02-15T14:55:46;20.70;99.90
15143;DHT22;7672;50.834;6.286;2024-02-15T14:58:14;20.60;99.90
15143;DHT22;7672;50.834;6.286;2024-02-15T15:00:45;20.50;99.90
15143;DHT22;7672;50.834;6.286;2024-02-15T15:03:15;20.50;99.90
15143;DHT22;7672;50.834;6.286;2024-02-15T15:05:43;20.40;99.90
15143;DHT22;7672;50.834;6.286;2024-02-15T15:08:30;20.30;99.90
15143;DHT22;7672;50.834;6.286;2024-02-15T15:11:16;20.10;99.90
15143;DHT22;7672;50.834;6.286;2024-02-15T15:14:02;20.20;99.90
15143;DHT22;7672;50.834;6.286;2024-02-15T15:16:33;20.20;99.90
15143;DHT22;7672;50.834;6.286;2024-02-15T15:19:00;20.10;99.90
15143;DHT22;7672;50.834;6.286;2024-02-15T15:21:28;20.00;99.90
15143;DHT22;7672;50.834;6.286;2024-02-15T15:23:55;20.00;99.90
15143;DHT22;7672;50.834;6.286;2024-02-15T15:26:23;20.00;99.90
15143;DHT22;7672;50.834;6.286;2024-02-15T15:28:50;20.00;99.90
15143;DHT22;7672;50.834;6.286;2024-02-15T15:31:18;19.90;99.90
15143;DHT22;7672;50.834;6.286;2024-02-15T15:33:48;19.90;99.90
15143;DHT22;7672;50.834;6.286;2024-02-15T15:36:17;19.90;99.90
15143;DHT22;7672;50.834;6.286;2024-02-15T15:38:46;19.90;99.90
15143;DHT22;7672;50.834;6.286;2024-02-15T15:41:13;19.80;99.90
15143;DHT22;7672;50.834;6.286;2024-02-15T15:43:41;19.80;99.90
15143;DHT22;7672;50.834;6.286;2024-02-15T15:46:15;19.80;99.90
15143;DHT22;7672;50.834;6.286;2024-02-15T15:48:42;19.70;99.90
15143;DHT22;7672;50.834;6.286;2024-02-15T15:51:12;19.70;99.90
15143;DHT22;7672;50.834;6.286;2024-02-15T15:53:41;19.70;99.90
15143;DHT22;7672;50.834;6.286;2024-02-15T15:56:09;19.60;99.90
15143;DHT22;7672;50.834;6.286;2024-02-15T15:58:36;19.50;99.90
15143;DHT22;7672;50.834;6.286;2024-02-15T16:01:03;19.50;99.90
15143;DHT22;7672;50.834;6.286;2024-02-15T16:03:31;19.50;99.90
15143;DHT22;7672;50.834;6.286;2024-02-15T16:05:59;19.40;99.90
15143;DHT22;7672;50.834;6.286;2024-02-15T16:08:26;19.40;99.90
15143;DHT22;7672;50.834;6.286;2024-02-15T16:10:54;19.30;99.90
15143;DHT22;7672;50.834;6.286;2024-02-15T16:13:22;19.30;99.90
15143;DHT22;7672;50.834;6.286;2024-02-15T16:15:53;19.20;99.90
15143;DHT22;7672;50.834;6.286;2024-02-15T16:18:21;19.20;99.90
15143;DHT22;7672;50.834;6.286;2024-02-15T16:20:50;19.10;99.90